createdAt,value
2024-02-08T00:00:17.955Z,6.4
2024-02-08T00:01:17.395Z,6.5
2024-02-08T00:02:18.145Z,5.8
2024-02-08T00:03:17.873Z,7.5
2024-02-08T00:04:17.710Z,5.8
2024-02-08T00:05:17.495Z,6.8
2024-02-08T00:06:17.480Z,6.1
2024-02-08T00:07:18.011Z,4.9
2024-02-08T00:08:17.694Z,7.1
2024-02-08T00:09:17.547Z,5.1
2024-02-08T00:10:17.351Z,6.6
2024-02-08T00:11:18.030Z,5.6
2024-02-08T00:12:17.910Z,5.5
2024-02-08T00:13:17.840Z,5.3
2024-02-08T00:14:17.594Z,6.6
2024-02-08T00:15:17.397Z,5.2
2024-02-08T00:16:18.145Z,6.2
2024-02-08T00:17:17.820Z,5.3
2024-02-08T00:18:17.663Z,5.6
2024-02-08T00:19:17.530Z,6.4
2024-02-08T00:20:18.245Z,5.8
2024-02-08T00:21:17.957Z,5.1
2024-02-08T00:22:20.622Z,6.3
2024-02-08T00:23:17.661Z,7.2
2024-02-08T00:24:17.382Z,6.2
2024-02-08T00:25:18.180Z,6.2
2024-02-08T00:26:17.835Z,4.8
2024-02-08T00:27:17.553Z,6.0
2024-02-08T00:28:17.737Z,6.4
2024-02-08T00:29:18.045Z,6.1
2024-02-08T00:30:17.874Z,7.3
2024-02-08T00:31:17.602Z,6.4
2024-02-08T00:32:17.628Z,5.8
2024-02-08T00:33:17.501Z,5.4
2024-02-08T00:34:18.028Z,7.1
2024-02-08T00:35:17.635Z,5.7
2024-02-08T00:36:18.038Z,6.9
2024-02-08T00:37:18.009Z,6.9
2024-02-08T00:38:17.829Z,5.4
2024-02-08T00:39:17.956Z,6.0
2024-02-08T00:40:18.116Z,6.1
2024-02-08T00:41:17.522Z,5.6
2024-02-08T00:42:17.351Z,6.5
2024-02-08T00:43:17.625Z,6.7
2024-02-08T00:44:17.593Z,6.0
2024-02-08T00:45:17.892Z,7.0
2024-02-08T00:46:17.868Z,5.5
2024-02-08T00:47:17.692Z,6.5
2024-02-08T00:48:17.539Z,5.8
2024-02-08T00:49:17.417Z,6.7
2024-02-08T00:50:18.130Z,6.2
2024-02-08T00:51:20.238Z,5.6
2024-02-08T00:52:17.535Z,6.6
2024-02-08T00:53:17.313Z,7.2
2024-02-08T00:54:18.085Z,6.0
2024-02-08T00:55:17.871Z,5.1
2024-02-08T00:56:17.770Z,6.8
2024-02-08T00:57:17.464Z,4.7
2024-02-08T00:58:18.264Z,6.7
2024-02-08T00:59:17.962Z,6.0
2024-02-08T01:00:18.119Z,6.3
2024-02-08T01:01:17.884Z,5.4
2024-02-08T01:02:17.697Z,6.3
2024-02-08T01:03:18.119Z,6.0
2024-02-08T01:04:17.828Z,6.6
2024-02-08T01:05:17.766Z,5.7
2024-02-08T01:06:17.594Z,5.6
2024-02-08T01:07:17.369Z,7.7
2024-02-08T01:08:18.164Z,5.8
2024-02-08T01:09:17.777Z,5.9
2024-02-08T01:10:17.776Z,7.5
2024-02-08T01:11:17.977Z,5.8
2024-02-08T01:12:18.094Z,5.8
2024-02-08T01:13:17.861Z,5.8
2024-02-08T01:14:17.696Z,6.1
2024-02-08T01:15:17.589Z,7.0
2024-02-08T01:16:17.340Z,5.7
2024-02-08T01:17:18.216Z,6.0
2024-02-08T01:18:17.980Z,5.8
2024-02-08T01:19:20.936Z,5.8
2024-02-08T01:20:18.365Z,7.1
2024-02-08T01:21:17.180Z,6.4
2024-02-08T01:22:18.032Z,6.0
2024-02-08T01:23:17.998Z,5.4
2024-02-08T01:24:17.883Z,5.5
2024-02-08T01:25:17.565Z,5.4
2024-02-08T01:26:18.112Z,4.9
2024-02-08T01:27:17.833Z,6.1
2024-02-08T01:28:17.745Z,5.3
2024-02-08T01:29:18.322Z,6.3
2024-02-08T01:30:17.445Z,5.3
2024-02-08T01:31:17.984Z,5.8
2024-02-08T01:32:18.041Z,6.7
2024-02-08T01:33:17.526Z,4.8
2024-02-08T01:34:17.444Z,5.4
2024-02-08T01:35:18.127Z,4.6
2024-02-08T01:36:17.936Z,4.5
2024-02-08T01:37:17.591Z,5.6
2024-02-08T01:38:17.689Z,6.6
2024-02-08T01:39:17.310Z,5.9
2024-02-08T01:40:18.385Z,5.8
2024-02-08T01:41:17.931Z,6.4
2024-02-08T01:42:17.624Z,7.7
2024-02-08T01:43:17.377Z,5.2
2024-02-08T01:44:18.518Z,7.1
2024-02-08T01:45:33.242Z,5.4
2024-02-08T01:46:17.789Z,5.7
2024-02-08T01:47:17.544Z,5.7
2024-02-08T01:48:18.175Z,5.7
2024-02-08T01:49:20.099Z,5.8
2024-02-08T01:50:18.141Z,5.0
2024-02-08T01:51:17.623Z,5.3
2024-02-08T01:52:18.519Z,5.5
2024-02-08T01:53:21.360Z,5.2
2024-02-08T01:54:18.184Z,5.5
2024-02-08T01:55:18.274Z,6.8
2024-02-08T01:56:17.670Z,6.3
2024-02-08T01:57:17.369Z,5.1
2024-02-08T01:58:18.446Z,5.8
2024-02-08T01:59:18.100Z,6.3
2024-02-08T02:00:17.869Z,5.1
2024-02-08T02:01:17.533Z,6.1
2024-02-08T02:02:17.715Z,5.7
2024-02-08T02:03:18.052Z,5.5
2024-02-08T02:04:18.084Z,6.3
2024-02-08T02:05:17.891Z,5.3
2024-02-08T02:06:17.757Z,6.4
2024-02-08T02:07:17.969Z,6.6
2024-02-08T02:08:22.176Z,5.0
2024-02-08T02:09:18.614Z,5.9
2024-02-08T02:10:17.825Z,5.9
2024-02-08T02:11:22.534Z,4.9
2024-02-08T02:12:19.207Z,5.6
2024-02-08T02:13:17.529Z,4.7
2024-02-08T02:14:18.123Z,6.1
2024-02-08T02:15:18.222Z,5.6
2024-02-08T02:16:17.570Z,5.9
2024-02-08T02:17:18.280Z,7.2
2024-02-08T02:18:18.270Z,5.3
2024-02-08T02:19:18.036Z,6.7
2024-02-08T02:20:17.891Z,6.0
2024-02-08T02:21:21.727Z,5.7
2024-02-08T02:22:17.645Z,5.8
2024-02-08T02:23:18.117Z,5.6
2024-02-08T02:24:17.802Z,5.4
2024-02-08T02:25:17.667Z,5.3
2024-02-08T02:26:17.415Z,4.3
2024-02-08T02:27:18.540Z,7.6
2024-02-08T02:28:18.545Z,6.9
2024-02-08T02:29:17.684Z,5.3
2024-02-08T02:30:17.878Z,6.3
2024-02-08T02:31:17.670Z,5.8
2024-02-08T02:32:18.079Z,4.9
2024-02-08T02:33:18.015Z,5.6
2024-02-08T02:34:17.811Z,5.4
2024-02-08T02:35:17.951Z,4.6
2024-02-08T02:36:18.230Z,5.4
2024-02-08T02:37:18.049Z,5.8
2024-02-08T02:38:17.985Z,5.7
2024-02-08T02:39:19.276Z,6.6
2024-02-08T02:40:17.839Z,4.5
2024-02-08T02:41:18.224Z,4.7
2024-02-08T02:42:17.901Z,6.5
2024-02-08T02:43:17.673Z,5.6
2024-02-08T02:44:17.513Z,5.2
2024-02-08T02:45:18.887Z,5.4
2024-02-08T02:46:17.902Z,5.5
2024-02-08T02:47:17.707Z,6.8
2024-02-08T02:48:17.664Z,5.3
2024-02-08T02:49:17.440Z,5.9
2024-02-08T02:50:17.814Z,5.6
2024-02-08T02:51:17.446Z,6.4
2024-02-08T02:52:17.987Z,6.7
2024-02-08T02:53:18.923Z,5.4
2024-02-08T02:54:17.972Z,6.5
2024-02-08T02:55:18.063Z,4.8
2024-02-08T02:56:17.365Z,5.4
2024-02-08T02:57:17.990Z,5.8
2024-02-08T02:58:17.980Z,4.8
2024-02-08T02:59:17.855Z,6.3
2024-02-08T03:00:17.688Z,6.1
2024-02-08T03:01:18.124Z,4.9
2024-02-08T03:02:18.032Z,5.4
2024-02-08T03:03:17.773Z,5.2
2024-02-08T03:04:17.750Z,5.8
2024-02-08T03:05:20.229Z,6.3
2024-02-08T03:06:18.077Z,7.6
2024-02-08T03:07:17.853Z,5.2
2024-02-08T03:08:18.250Z,4.5
2024-02-08T03:09:17.453Z,5.3
2024-02-08T03:10:17.492Z,5.5
2024-02-08T03:11:17.869Z,5.7
2024-02-08T03:12:17.595Z,5.2
2024-02-08T03:13:17.600Z,6.5
2024-02-08T03:14:17.322Z,5.0
2024-02-08T03:15:18.325Z,6.7
2024-02-08T03:16:17.921Z,6.0
2024-02-08T03:17:17.670Z,5.5
2024-02-08T03:18:17.545Z,6.7
2024-02-08T03:19:17.589Z,5.5
2024-02-08T03:20:18.306Z,5.1
2024-02-08T03:21:17.836Z,4.8
2024-02-08T03:22:17.505Z,5.0
2024-02-08T03:23:17.515Z,5.4
2024-02-08T03:24:18.158Z,6.2
2024-02-08T03:25:18.454Z,5.2
2024-02-08T03:26:17.844Z,6.2
2024-02-08T03:27:17.482Z,5.6
2024-02-08T03:28:17.393Z,6.6
2024-02-08T03:29:18.083Z,5.6
2024-02-08T03:30:21.083Z,6.0
2024-02-08T03:31:17.968Z,5.2
2024-02-08T03:32:17.301Z,6.3
2024-02-08T03:33:18.255Z,4.9
2024-02-08T03:34:18.755Z,4.9
2024-02-08T03:35:18.420Z,5.4
2024-02-08T03:36:17.504Z,6.5
2024-02-08T03:37:17.521Z,6.1
2024-02-08T03:38:17.970Z,6.2
2024-02-08T03:39:17.841Z,5.6
2024-02-08T03:40:17.614Z,5.2
2024-02-08T03:41:17.361Z,5.9
2024-02-08T03:42:18.032Z,4.9
2024-02-08T03:43:17.947Z,5.5
2024-02-08T03:44:17.719Z,5.0
2024-02-08T03:45:17.957Z,5.1
2024-02-08T03:46:17.397Z,5.0
2024-02-08T03:47:18.080Z,5.2
2024-02-08T03:48:17.870Z,4.2
2024-02-08T03:49:17.855Z,4.8
2024-02-08T03:50:17.686Z,4.3
2024-02-08T03:51:18.114Z,4.9
2024-02-08T03:52:20.491Z,4.9
2024-02-08T03:53:17.880Z,4.6
2024-02-08T03:54:17.673Z,5.3
2024-02-08T03:55:17.609Z,6.0
2024-02-08T03:56:18.052Z,5.0
2024-02-08T03:57:17.543Z,7.2
2024-02-08T03:58:18.016Z,5.6
2024-02-08T03:59:20.916Z,4.6
2024-02-08T04:00:17.867Z,4.6
2024-02-08T04:01:17.583Z,4.8
2024-02-08T04:02:17.414Z,7.1
2024-02-08T04:03:18.264Z,4.5
2024-02-08T04:04:17.948Z,5.3
2024-02-08T04:05:17.685Z,5.9
2024-02-08T04:06:17.539Z,4.5
2024-02-08T04:07:18.293Z,5.6
2024-02-08T04:08:17.957Z,5.3
2024-02-08T04:09:18.075Z,5.5
2024-02-08T04:10:17.660Z,5.1
2024-02-08T04:11:17.440Z,4.8
2024-02-08T04:12:18.061Z,5.3
2024-02-08T04:13:18.278Z,6.1
2024-02-08T04:14:17.801Z,6.3
2024-02-08T04:15:17.429Z,4.0
2024-02-08T04:16:18.070Z,4.8
2024-02-08T04:17:17.832Z,4.8
2024-02-08T04:18:17.912Z,5.6
2024-02-08T04:19:17.742Z,5.7
2024-02-08T04:20:17.313Z,5.6
2024-02-08T04:21:18.062Z,4.7
2024-02-08T04:22:17.829Z,5.7
2024-02-08T04:23:17.699Z,4.2
2024-02-08T04:24:17.671Z,7.6
2024-02-08T04:25:17.267Z,4.9
2024-02-08T04:26:18.016Z,4.8
2024-02-08T04:27:17.693Z,5.7
2024-02-08T04:28:17.621Z,5.0
2024-02-08T04:29:17.472Z,5.2
2024-02-08T04:30:18.102Z,5.2
2024-02-08T04:31:17.893Z,5.0
2024-02-08T04:32:17.658Z,6.1
2024-02-08T04:33:17.749Z,5.0
2024-02-08T04:34:17.371Z,5.1
2024-02-08T04:35:18.242Z,4.3
2024-02-08T04:36:17.737Z,5.8
2024-02-08T04:37:17.510Z,5.1
2024-02-08T04:38:17.443Z,4.6
2024-02-08T04:39:17.889Z,5.2
2024-02-08T04:40:17.846Z,5.7
2024-02-08T04:41:18.019Z,5.7
2024-02-08T04:42:17.527Z,6.2
2024-02-08T04:43:17.286Z,5.0
2024-02-08T04:44:18.005Z,4.9
2024-02-08T04:45:17.821Z,4.5
2024-02-08T04:46:18.276Z,5.8
2024-02-08T04:47:17.586Z,5.6
2024-02-08T04:48:18.231Z,6.0
2024-02-08T04:49:17.907Z,4.2
2024-02-08T04:50:17.898Z,4.5
2024-02-08T04:51:17.539Z,5.0
2024-02-08T04:52:17.455Z,4.6
2024-02-08T04:53:18.131Z,4.3
2024-02-08T04:54:17.657Z,5.0
2024-02-08T04:55:17.712Z,4.6
2024-02-08T04:56:17.500Z,4.4
2024-02-08T04:57:18.199Z,4.7
2024-02-08T04:58:36.782Z,4.3
2024-02-08T04:59:22.400Z,5.8
2024-02-08T05:00:18.002Z,4.8
2024-02-08T05:01:17.415Z,4.9
2024-02-08T05:02:18.033Z,5.8
2024-02-08T05:03:17.928Z,5.0
2024-02-08T05:04:18.047Z,4.4
2024-02-08T05:05:17.372Z,4.6
2024-02-08T05:06:17.316Z,4.8
2024-02-08T05:07:18.037Z,5.2
2024-02-08T05:08:17.843Z,4.4
2024-02-08T05:09:17.584Z,5.5
2024-02-08T05:10:17.399Z,4.9
2024-02-08T05:11:18.064Z,3.8
2024-02-08T05:12:18.025Z,5.0
2024-02-08T05:13:17.745Z,5.2
2024-02-08T05:14:17.612Z,5.2
2024-02-08T05:15:17.762Z,4.9
2024-02-08T05:16:18.274Z,4.5
2024-02-08T05:17:17.489Z,4.0
2024-02-08T05:18:18.215Z,5.6
2024-02-08T05:19:18.001Z,5.1
2024-02-08T05:20:17.776Z,6.2
2024-02-08T05:21:17.462Z,5.8
2024-02-08T05:22:17.418Z,4.5
2024-02-08T05:23:18.117Z,4.1
2024-02-08T05:24:17.795Z,5.7
2024-02-08T05:25:17.658Z,6.0
2024-02-08T05:26:18.075Z,4.5
2024-02-08T05:27:18.240Z,5.1
2024-02-08T05:28:18.069Z,4.6
2024-02-08T05:29:17.701Z,5.9
2024-02-08T05:30:17.713Z,4.5
2024-02-08T05:31:17.593Z,5.3
2024-02-08T05:32:17.963Z,4.2
2024-02-08T05:33:18.523Z,3.9
2024-02-08T05:34:18.761Z,4.4
2024-02-08T05:35:17.771Z,4.6
2024-02-08T05:36:17.623Z,5.1
2024-02-08T05:37:17.472Z,4.5
2024-02-08T05:38:18.236Z,3.9
2024-02-08T05:39:18.048Z,5.0
2024-02-08T05:40:17.740Z,4.5
2024-02-08T05:41:17.532Z,5.5
2024-02-08T05:42:17.492Z,6.2
2024-02-08T05:43:21.086Z,3.8
2024-02-08T05:44:17.890Z,4.2
2024-02-08T05:45:18.012Z,5.2
2024-02-08T05:46:18.437Z,5.5
2024-02-08T05:47:17.857Z,4.6
2024-02-08T05:48:17.595Z,3.9
2024-02-08T05:49:18.328Z,3.8
2024-02-08T05:50:18.021Z,5.9
2024-02-08T05:51:18.252Z,4.4
2024-02-08T05:52:17.869Z,5.3
2024-02-08T05:53:17.282Z,4.7
2024-02-08T05:54:20.585Z,3.8
2024-02-08T05:55:18.737Z,4.8
2024-02-08T05:56:18.095Z,5.1
2024-02-08T05:57:17.966Z,5.0
2024-02-08T05:58:17.753Z,4.5
2024-02-08T05:59:17.560Z,4.2
2024-02-08T06:00:18.503Z,5.2
2024-02-08T06:01:18.737Z,5.4
2024-02-08T06:02:18.416Z,4.6
2024-02-08T06:03:17.872Z,4.4
2024-02-08T06:04:17.985Z,5.1
2024-02-08T06:05:18.670Z,5.3
2024-02-08T06:06:17.839Z,4.7
2024-02-08T06:07:18.191Z,6.1
2024-02-08T06:08:17.885Z,5.9
2024-02-08T06:09:17.617Z,6.0
2024-02-08T06:10:17.484Z,4.9
2024-02-08T06:11:18.085Z,5.1
2024-02-08T06:12:18.466Z,4.6
2024-02-08T06:13:17.910Z,4.5
2024-02-08T06:14:17.690Z,4.8
2024-02-08T06:15:17.478Z,4.4
2024-02-08T06:16:18.124Z,3.8
2024-02-08T06:17:17.935Z,5.9
2024-02-08T06:18:17.709Z,5.2
2024-02-08T06:19:17.487Z,5.2
2024-02-08T06:20:18.222Z,4.8
2024-02-08T06:21:18.047Z,3.5
2024-02-08T06:22:18.221Z,4.4
2024-02-08T06:23:19.702Z,6.0
2024-02-08T06:24:17.408Z,5.6
2024-02-08T06:25:17.995Z,4.2
2024-02-08T06:26:17.819Z,4.6
2024-02-08T06:27:17.902Z,4.5
2024-02-08T06:28:17.453Z,4.2
2024-02-08T06:29:18.128Z,3.6
2024-02-08T06:30:18.006Z,5.1
2024-02-08T06:31:17.759Z,4.9
2024-02-08T06:32:17.614Z,3.7
2024-02-08T06:33:17.608Z,5.3
2024-02-08T06:34:18.223Z,5.7
2024-02-08T06:35:17.788Z,5.4
2024-02-08T06:36:17.698Z,4.8
2024-02-08T06:37:18.580Z,4.7
2024-02-08T06:38:17.813Z,4.0
2024-02-08T06:39:17.548Z,4.7
2024-02-08T06:40:18.303Z,3.7
2024-02-08T06:41:18.068Z,4.3
2024-02-08T06:42:17.256Z,4.5
2024-02-08T06:43:18.229Z,4.9
2024-02-08T06:44:17.841Z,3.2
2024-02-08T06:45:17.662Z,5.9
2024-02-08T06:46:17.529Z,5.7
2024-02-08T06:47:18.062Z,5.5
2024-02-08T06:48:19.005Z,4.4
2024-02-08T06:49:17.954Z,7.1
2024-02-08T06:50:17.677Z,4.9
2024-02-08T06:51:17.367Z,5.2
2024-02-08T06:52:18.186Z,5.6
2024-02-08T06:53:18.023Z,4.5
2024-02-08T06:54:17.717Z,4.4
2024-02-08T06:55:17.721Z,4.7
2024-02-08T06:56:17.312Z,4.2
2024-02-08T06:57:18.044Z,4.6
2024-02-08T06:58:17.917Z,4.5
2024-02-08T06:59:17.637Z,4.1
2024-02-08T07:00:17.512Z,5.2
2024-02-08T07:01:18.215Z,5.2
2024-02-08T07:02:18.194Z,4.9
2024-02-08T07:03:17.892Z,3.9
2024-02-08T07:04:17.808Z,4.0
2024-02-08T07:05:17.497Z,4.4
2024-02-08T07:06:17.945Z,4.8
2024-02-08T07:07:17.900Z,4.6
2024-02-08T07:08:17.878Z,3.6
2024-02-08T07:09:17.455Z,4.3
2024-02-08T07:10:18.279Z,4.1
2024-02-08T07:11:17.923Z,4.5
2024-02-08T07:12:17.825Z,4.6
2024-02-08T07:13:17.568Z,5.5
2024-02-08T07:14:17.388Z,4.6
2024-02-08T07:15:17.930Z,4.7
2024-02-08T07:16:17.980Z,5.1
2024-02-08T07:17:17.614Z,5.5
2024-02-08T07:18:17.542Z,4.6
2024-02-08T07:19:18.364Z,4.1
2024-02-08T07:20:18.115Z,3.4
2024-02-08T07:21:17.715Z,4.4
2024-02-08T07:22:17.643Z,5.1
2024-02-08T07:23:17.359Z,5.2
2024-02-08T07:24:18.236Z,5.7
2024-02-08T07:25:17.858Z,4.7
2024-02-08T07:26:17.817Z,5.4
2024-02-08T07:27:17.511Z,4.6
2024-02-08T07:28:18.239Z,4.4
2024-02-08T07:29:18.105Z,4.1
2024-02-08T07:30:17.784Z,5.8
2024-02-08T07:31:17.770Z,5.5
2024-02-08T07:32:17.334Z,5.3
2024-02-08T07:33:18.024Z,4.5
2024-02-08T07:34:18.287Z,4.7
2024-02-08T07:35:17.669Z,3.9
2024-02-08T07:36:19.271Z,4.3
2024-02-08T07:37:18.224Z,4.7
2024-02-08T07:38:17.978Z,5.5
2024-02-08T07:39:18.110Z,4.6
2024-02-08T07:40:17.689Z,4.7
2024-02-08T07:41:17.571Z,5.1
2024-02-08T07:42:35.709Z,4.7
2024-02-08T07:43:18.581Z,4.2
2024-02-08T07:44:17.737Z,4.5
2024-02-08T07:45:17.636Z,3.7
2024-02-08T07:46:17.274Z,5.0
2024-02-08T07:47:18.047Z,6.7
2024-02-08T07:48:17.882Z,5.3
2024-02-08T07:49:17.640Z,5.9
2024-02-08T07:50:17.677Z,5.1
2024-02-08T07:51:18.157Z,4.8
2024-02-08T07:52:17.851Z,6.7
2024-02-08T07:53:17.678Z,9.1
2024-02-08T07:54:18.053Z,11.9
2024-02-08T07:55:17.503Z,13.0
2024-02-08T07:56:18.070Z,16.2
2024-02-08T07:57:17.748Z,11.8
2024-02-08T07:58:18.153Z,13.6
2024-02-08T07:59:17.839Z,15.6
2024-02-08T08:00:17.915Z,12.9
2024-02-08T08:01:17.862Z,13.1
2024-02-08T08:02:17.344Z,11.6
2024-02-08T08:03:18.432Z,11.7
2024-02-08T08:04:17.845Z,11.9
2024-02-08T08:05:17.672Z,12.3
2024-02-08T08:06:17.509Z,12.9
2024-02-08T08:07:18.775Z,9.7
2024-02-08T08:08:17.929Z,11.4
2024-02-08T08:09:17.837Z,11.5
2024-02-08T08:10:17.627Z,10.4
2024-02-08T08:11:17.563Z,12.7
2024-02-08T08:12:17.892Z,10.6
2024-02-08T08:13:17.972Z,9.6
2024-02-08T08:14:17.672Z,8.2
2024-02-08T08:15:17.343Z,10.2
2024-02-08T08:16:17.468Z,9.7
2024-02-08T08:17:18.602Z,9.6
2024-02-08T08:18:17.924Z,9.7
2024-02-08T08:19:17.655Z,9.2
2024-02-08T08:20:18.281Z,10.0
2024-02-08T08:21:18.167Z,10.3
2024-02-08T08:22:17.969Z,9.4
2024-02-08T08:23:17.809Z,10.2
2024-02-08T08:24:17.587Z,9.0
2024-02-08T08:25:17.916Z,9.2
2024-02-08T08:26:17.592Z,9.2
2024-02-08T08:27:17.369Z,9.7
2024-02-08T08:28:17.836Z,10.1
2024-02-08T08:29:17.477Z,8.4
2024-02-08T08:30:17.331Z,9.3
2024-02-08T08:31:17.487Z,10.4
2024-02-08T08:32:17.338Z,9.5
2024-02-08T08:33:18.081Z,8.6
2024-02-08T08:34:19.134Z,9.3
2024-02-08T08:35:17.807Z,8.7
2024-02-08T08:36:17.445Z,9.6
2024-02-08T08:37:17.314Z,7.7
2024-02-08T08:38:18.104Z,9.9
2024-02-08T08:39:17.791Z,9.6
2024-02-08T08:40:18.440Z,11.1
2024-02-08T08:41:17.879Z,7.9
2024-02-08T08:42:18.059Z,8.1
2024-02-08T08:43:17.935Z,10.0
2024-02-08T08:44:17.709Z,9.7
2024-02-08T08:45:18.291Z,10.0
2024-02-08T08:46:17.438Z,8.9
2024-02-08T08:47:18.204Z,9.4
2024-02-08T08:48:21.006Z,8.6
2024-02-08T08:49:17.894Z,8.5
2024-02-08T08:50:21.162Z,9.1
2024-02-08T08:51:17.687Z,9.7
2024-02-08T08:52:20.793Z,9.6
2024-02-08T08:53:18.209Z,7.5
2024-02-08T08:54:17.912Z,9.4
2024-02-08T08:55:18.010Z,8.1
2024-02-08T08:56:17.704Z,8.1
2024-02-08T08:57:17.388Z,8.4
2024-02-08T08:58:17.413Z,8.8
2024-02-08T08:59:17.939Z,8.3
2024-02-08T09:00:17.944Z,8.6
2024-02-08T09:01:18.134Z,7.5
2024-02-08T09:02:17.403Z,7.9
2024-02-08T09:03:18.346Z,9.0
2024-02-08T09:04:18.011Z,9.6
2024-02-08T09:05:18.073Z,10.6
2024-02-08T09:06:18.201Z,8.9
2024-02-08T09:07:29.800Z,8.2
2024-02-08T09:08:18.157Z,9.3
2024-02-08T09:09:17.224Z,9.6
2024-02-08T09:10:18.182Z,8.1
2024-02-08T09:11:17.797Z,8.2
2024-02-08T09:12:17.685Z,8.2
2024-02-08T09:13:18.124Z,10.7
2024-02-08T09:14:17.793Z,8.5
2024-02-08T09:15:17.631Z,8.5
2024-02-08T09:16:17.524Z,7.3
2024-02-08T09:17:24.877Z,8.7
2024-02-08T09:18:18.012Z,7.9
2024-02-08T09:19:18.067Z,8.5
2024-02-08T09:20:21.445Z,8.7
2024-02-08T09:21:17.217Z,7.8
2024-02-08T09:22:17.644Z,8.4
2024-02-08T09:23:17.271Z,9.3
2024-02-08T09:24:18.133Z,8.8
2024-02-08T09:25:27.693Z,9.1
2024-02-08T09:26:18.092Z,8.9
2024-02-08T09:27:18.645Z,8.2
2024-02-08T09:28:17.740Z,9.0
2024-02-08T09:29:18.602Z,7.4
2024-02-08T09:30:17.937Z,9.0
2024-02-08T09:31:17.767Z,8.7
2024-02-08T09:32:18.010Z,9.7
2024-02-08T09:33:17.893Z,7.5
2024-02-08T09:34:18.043Z,8.0
2024-02-08T09:35:17.962Z,6.8
2024-02-08T09:36:17.792Z,8.1
2024-02-08T09:37:17.202Z,7.8
2024-02-08T09:38:17.930Z,8.1
2024-02-08T09:39:17.925Z,9.0
2024-02-08T09:40:18.194Z,8.6
2024-02-08T09:41:17.759Z,8.0
2024-02-08T09:42:17.362Z,8.4
2024-02-08T09:43:18.841Z,6.8
2024-02-08T09:44:18.410Z,7.7
2024-02-08T09:45:18.640Z,8.2
2024-02-08T09:46:19.098Z,8.1
2024-02-08T09:47:18.737Z,9.9
2024-02-08T09:48:17.557Z,10.8
2024-02-08T09:49:19.439Z,8.1
2024-02-08T09:50:19.653Z,7.2
2024-02-08T09:51:18.570Z,7.4
2024-02-08T09:52:17.701Z,8.1
2024-02-08T09:53:19.622Z,9.6
2024-02-08T09:54:20.979Z,8.1
2024-02-08T09:55:17.823Z,7.3
2024-02-08T09:56:24.082Z,7.6
2024-02-08T09:57:17.372Z,6.9
2024-02-08T09:58:17.544Z,8.9
2024-02-08T09:59:19.002Z,9.7
2024-02-08T10:00:17.575Z,8.6
2024-02-08T10:01:18.128Z,7.4
2024-02-08T10:02:17.975Z,7.2
2024-02-08T10:03:17.847Z,7.2
2024-02-08T10:04:17.871Z,10.9
2024-02-08T10:05:17.367Z,7.5
2024-02-08T10:06:19.215Z,8.6
2024-02-08T10:07:17.687Z,8.5
2024-02-08T10:08:18.097Z,7.6
2024-02-08T10:09:17.288Z,7.8
2024-02-08T10:10:18.165Z,6.9
2024-02-08T10:11:19.452Z,9.1
2024-02-08T10:12:17.781Z,8.2
2024-02-08T10:13:17.661Z,9.1
2024-02-08T10:14:17.236Z,6.4
2024-02-08T10:15:18.089Z,8.1
2024-02-08T10:16:17.751Z,9.0
2024-02-08T10:17:18.582Z,7.4
2024-02-08T10:18:17.412Z,7.0
2024-02-08T10:19:17.270Z,7.7
2024-02-08T10:20:21.415Z,7.2
2024-02-08T10:21:17.677Z,7.1
2024-02-08T10:22:17.687Z,7.8
2024-02-08T10:23:17.899Z,7.8
2024-02-08T10:24:18.989Z,7.3
2024-02-08T10:25:17.851Z,7.4
2024-02-08T10:26:17.583Z,7.9
2024-02-08T10:27:17.735Z,6.4
2024-02-08T10:28:17.561Z,7.6
2024-02-08T10:29:19.733Z,7.4
2024-02-08T10:30:17.751Z,7.6
2024-02-08T10:31:17.644Z,9.0
2024-02-08T10:32:20.607Z,6.3
2024-02-08T10:33:17.698Z,8.0
2024-02-08T10:34:22.447Z,8.3
2024-02-08T10:35:19.097Z,7.9
2024-02-08T10:36:18.331Z,6.4
2024-02-08T10:37:17.877Z,8.2
2024-02-08T10:38:18.667Z,7.0
2024-02-08T10:39:17.761Z,7.2
2024-02-08T10:40:17.996Z,6.4
2024-02-08T10:41:17.392Z,7.5
2024-02-08T10:42:17.255Z,8.5
2024-02-08T10:43:18.320Z,7.0
2024-02-08T10:44:21.452Z,8.0
2024-02-08T10:45:17.686Z,6.5
2024-02-08T10:46:18.106Z,6.7
2024-02-08T10:47:28.501Z,6.8
2024-02-08T10:48:18.034Z,6.7
2024-02-08T10:49:17.833Z,8.7
2024-02-08T10:50:18.278Z,7.9
2024-02-08T10:51:18.818Z,9.2
2024-02-08T10:52:19.318Z,7.1
2024-02-08T10:53:17.731Z,6.3
2024-02-08T10:54:18.920Z,8.5
2024-02-08T10:55:17.879Z,7.5
2024-02-08T10:56:17.497Z,7.9
2024-02-08T10:57:18.289Z,8.2
2024-02-08T10:58:17.848Z,7.4
2024-02-08T10:59:17.667Z,7.7
2024-02-08T11:00:17.531Z,7.5
2024-02-08T11:01:17.544Z,7.5
2024-02-08T11:02:19.241Z,6.2
2024-02-08T11:03:18.546Z,6.9
2024-02-08T11:04:19.243Z,6.1
2024-02-08T11:05:18.118Z,6.8
2024-02-08T11:06:18.200Z,7.2
2024-02-08T11:07:19.138Z,7.0
2024-02-08T11:08:17.702Z,6.8
2024-02-08T11:09:17.557Z,7.4
2024-02-08T11:10:17.774Z,5.9
2024-02-08T11:11:18.775Z,6.3
2024-02-08T11:12:22.158Z,5.7
2024-02-08T11:13:18.083Z,7.6
2024-02-08T11:14:18.240Z,6.4
2024-02-08T11:15:18.608Z,7.5
2024-02-08T11:16:22.795Z,7.3
2024-02-08T11:17:19.500Z,7.6
2024-02-08T11:18:18.292Z,6.2
2024-02-08T11:19:17.611Z,6.9
2024-02-08T11:20:24.429Z,6.2
2024-02-08T11:21:22.951Z,8.0
2024-02-08T11:22:20.768Z,6.2
2024-02-08T11:23:17.605Z,7.2
2024-02-08T11:24:22.513Z,5.7
2024-02-08T11:25:22.261Z,6.1
2024-02-08T11:26:17.411Z,7.3
2024-02-08T11:27:23.168Z,8.1
2024-02-08T11:28:25.870Z,6.5
2024-02-08T11:29:17.697Z,8.3
2024-02-08T11:30:18.244Z,6.3
2024-02-08T11:31:17.823Z,6.5
2024-02-08T11:32:18.971Z,5.6
2024-02-08T11:33:20.104Z,8.6
2024-02-08T11:34:17.898Z,6.5
2024-02-08T11:35:20.737Z,5.9
2024-02-08T11:36:17.890Z,7.5
2024-02-08T11:37:17.816Z,6.4
2024-02-08T11:38:23.009Z,6.9
2024-02-08T11:39:20.672Z,7.5
2024-02-08T11:40:23.075Z,6.9
2024-02-08T11:41:20.454Z,7.2
2024-02-08T11:42:17.755Z,7.3
2024-02-08T11:43:17.991Z,6.3
2024-02-08T11:44:20.073Z,7.1
2024-02-08T11:45:18.877Z,8.0
2024-02-08T11:46:18.093Z,8.1
2024-02-08T11:47:19.422Z,7.6
2024-02-08T11:48:22.740Z,6.1
2024-02-08T11:49:20.593Z,7.2
2024-02-08T11:50:20.448Z,6.9
2024-02-08T11:51:17.856Z,6.1
2024-02-08T11:52:18.192Z,7.7
2024-02-08T11:53:22.717Z,6.8
2024-02-08T11:54:24.052Z,7.0
2024-02-08T11:55:18.299Z,7.1
2024-02-08T11:56:17.419Z,7.8
2024-02-08T11:57:20.756Z,6.9
2024-02-08T11:58:17.312Z,7.6
2024-02-08T11:59:19.225Z,5.9
2024-02-08T12:00:18.476Z,7.1
2024-02-08T12:01:20.890Z,6.0
2024-02-08T12:02:17.493Z,7.1
2024-02-08T12:03:18.236Z,5.9
2024-02-08T12:04:18.325Z,5.9
2024-02-08T12:05:18.044Z,5.6
2024-02-08T12:06:21.143Z,6.0
2024-02-08T12:07:19.650Z,7.4
2024-02-08T12:08:17.657Z,5.2
2024-02-08T12:09:17.374Z,7.4
2024-02-08T12:10:19.106Z,6.0
2024-02-08T12:11:17.963Z,5.6
2024-02-08T12:12:17.658Z,7.5
2024-02-08T12:13:18.155Z,5.9
2024-02-08T12:15:20.490Z,6.8
2024-02-08T12:16:18.023Z,7.4
2024-02-08T12:17:21.524Z,7.6
2024-02-08T12:18:17.568Z,7.0
2024-02-08T12:19:18.249Z,8.4
2024-02-08T12:20:17.628Z,6.7
2024-02-08T12:21:18.177Z,6.8
2024-02-08T12:22:18.032Z,6.3
2024-02-08T12:23:20.592Z,6.3
2024-02-08T12:24:17.848Z,7.6
2024-02-08T12:25:17.537Z,6.5
2024-02-08T12:26:18.274Z,4.9
2024-02-08T12:27:18.037Z,6.8
2024-02-08T12:28:17.894Z,6.1
2024-02-08T12:29:17.887Z,6.1
2024-02-08T12:30:21.557Z,5.8
2024-02-08T12:31:19.157Z,6.2
2024-02-08T12:32:18.347Z,6.0
2024-02-08T12:33:17.860Z,6.4
2024-02-08T12:34:18.408Z,5.9
2024-02-08T12:35:21.271Z,7.5
2024-02-08T12:36:19.070Z,6.2
2024-02-08T12:37:20.068Z,7.1
2024-02-08T12:38:17.688Z,5.2
2024-02-08T12:39:18.354Z,6.9
2024-02-08T12:40:18.973Z,6.9
2024-02-08T12:41:18.020Z,6.4
2024-02-08T12:42:17.763Z,7.6
2024-02-08T12:43:17.604Z,5.4
2024-02-08T12:44:18.277Z,6.1
2024-02-08T12:45:18.114Z,7.5
2024-02-08T12:46:19.867Z,6.1
2024-02-08T12:47:18.318Z,7.3
2024-02-08T12:48:18.481Z,6.2
2024-02-08T12:49:17.847Z,5.9
2024-02-08T12:50:24.785Z,6.1
2024-02-08T12:51:18.784Z,7.4
2024-02-08T12:52:18.630Z,7.0
2024-02-08T12:53:20.435Z,6.7
2024-02-08T12:54:17.642Z,5.7
2024-02-08T12:55:20.073Z,5.4
2024-02-08T12:56:18.908Z,7.7
2024-02-08T12:57:17.976Z,6.6
2024-02-08T12:58:18.501Z,5.3
2024-02-08T12:59:18.729Z,6.2
2024-02-08T13:00:17.565Z,6.2
2024-02-08T13:01:18.159Z,4.6
2024-02-08T13:02:19.126Z,6.4
2024-02-08T13:03:17.607Z,6.2
2024-02-08T13:04:17.796Z,5.7
2024-02-08T13:05:18.360Z,6.4
2024-02-08T13:06:18.805Z,5.2
2024-02-08T13:07:18.248Z,6.1
2024-02-08T13:08:18.150Z,6.4
2024-02-08T13:09:23.042Z,4.5
2024-02-08T13:10:18.047Z,4.6
2024-02-08T13:11:21.125Z,7.3
2024-02-08T13:12:17.945Z,6.6
2024-02-08T13:13:20.099Z,5.2
2024-02-08T13:14:20.474Z,6.9
2024-02-08T13:15:19.944Z,5.5
2024-02-08T13:16:18.195Z,6.5
2024-02-08T13:17:18.732Z,6.1
2024-02-08T13:18:18.154Z,6.3
2024-02-08T13:19:18.228Z,7.0
2024-02-08T13:20:17.996Z,5.9
2024-02-08T13:21:17.613Z,6.4
2024-02-08T13:22:17.393Z,6.8
2024-02-08T13:23:18.011Z,7.0
2024-02-08T13:24:17.750Z,5.6
2024-02-08T13:25:18.295Z,6.0
2024-02-08T13:26:25.752Z,5.5
2024-02-08T13:27:24.788Z,6.2
2024-02-08T13:28:17.956Z,5.3
2024-02-08T13:29:17.846Z,5.3
2024-02-08T13:30:17.751Z,6.2
2024-02-08T13:31:17.270Z,6.6
2024-02-08T13:32:18.076Z,5.3
2024-02-08T13:33:17.799Z,6.6
2024-02-08T13:34:27.897Z,4.8
2024-02-08T13:35:20.636Z,4.9
2024-02-08T13:36:17.696Z,5.5
2024-02-08T13:37:20.662Z,6.1
2024-02-08T13:38:18.480Z,5.0
2024-02-08T13:39:17.987Z,5.3
2024-02-08T13:40:18.062Z,6.2
2024-02-08T13:41:17.689Z,5.9
2024-02-08T13:42:17.448Z,6.2
2024-02-08T13:43:18.018Z,5.1
2024-02-08T13:44:18.370Z,5.3
2024-02-08T13:45:21.728Z,5.9